createdAt,value
2023-04-06T00:01:12.968Z,45.23
2023-04-06T00:04:14.638Z,45.04
2023-04-06T00:07:16.424Z,45.13
2023-04-06T00:10:18.242Z,45.23
2023-04-06T00:13:19.820Z,45.32
2023-04-06T00:16:23.664Z,45.27
2023-04-06T00:19:26.492Z,45.42
2023-04-06T00:22:28.059Z,45.20
2023-04-06T00:25:29.628Z,45.15
2023-04-06T00:28:31.191Z,45.27
2023-04-06T00:31:32.797Z,45.34
2023-04-06T00:34:34.375Z,45.43
2023-04-06T00:37:36.110Z,45.43
2023-04-06T00:40:37.724Z,45.21
2023-04-06T00:43:39.457Z,45.39
2023-04-06T00:46:41.223Z,45.48
2023-04-06T00:49:42.803Z,45.32
2023-04-06T00:52:44.366Z,45.60
2023-04-06T00:55:45.993Z,45.62
2023-04-06T00:58:47.716Z,45.68
2023-04-06T01:01:49.423Z,45.61
2023-04-06T01:04:51.077Z,45.66
2023-04-06T01:07:52.693Z,45.54
2023-04-06T01:10:54.241Z,45.51
2023-04-06T01:13:56.366Z,45.72
2023-04-06T01:16:59.716Z,45.74
2023-04-06T01:20:01.444Z,45.56
2023-04-06T01:23:03.202Z,45.77
2023-04-06T01:26:04.886Z,45.69
2023-04-06T01:29:06.739Z,45.78
2023-04-06T01:32:09.020Z,45.67
2023-04-06T01:35:10.740Z,45.72
2023-04-06T01:38:12.315Z,45.88
2023-04-06T01:41:13.970Z,45.78
2023-04-06T01:44:22.333Z,45.80
2023-04-06T01:47:23.943Z,45.69
2023-04-06T01:50:25.601Z,45.83
2023-04-06T01:53:27.156Z,45.91
2023-04-06T01:56:28.743Z,45.91
2023-04-06T01:59:30.628Z,45.89
2023-04-06T02:02:32.388Z,46.16
2023-04-06T02:05:38.832Z,45.79
2023-04-06T02:08:40.626Z,46.01
2023-04-06T02:11:42.191Z,45.94
2023-04-06T02:14:43.811Z,46.01
2023-04-06T02:17:45.817Z,46.10
2023-04-06T02:20:47.468Z,46.13
2023-04-06T02:23:50.429Z,46.07
2023-04-06T02:26:52.084Z,46.11
2023-04-06T02:29:53.663Z,45.73
2023-04-06T02:32:55.689Z,46.07
2023-04-06T02:35:57.344Z,46.12
2023-04-06T02:38:58.967Z,46.21
2023-04-06T02:42:00.954Z,46.05
2023-04-06T02:45:03.043Z,46.39
2023-04-06T02:48:05.035Z,46.18
2023-04-06T02:51:07.076Z,45.97
2023-04-06T02:54:08.694Z,46.50
2023-04-06T02:57:10.298Z,46.10
2023-04-06T03:00:13.065Z,46.24
2023-04-06T03:03:14.933Z,46.26
2023-04-06T03:06:16.598Z,46.36
2023-04-06T03:09:18.255Z,46.33
2023-04-06T03:12:19.842Z,46.38
2023-04-06T03:15:21.519Z,46.56
2023-04-06T03:18:25.048Z,46.48
2023-04-06T03:21:26.629Z,46.43
2023-04-06T03:24:28.328Z,46.40
2023-04-06T03:27:30.241Z,46.35
2023-04-06T03:30:31.870Z,46.33
2023-04-06T03:33:33.533Z,46.49
2023-04-06T03:36:35.895Z,46.48
2023-04-06T03:39:37.782Z,46.75
2023-04-06T03:42:39.370Z,46.61
2023-04-06T03:45:41.026Z,46.41
2023-04-06T03:48:42.595Z,46.87
2023-04-06T03:51:44.198Z,46.78
2023-04-06T03:54:45.782Z,46.57
2023-04-06T03:57:47.389Z,46.58
2023-04-06T04:00:48.975Z,46.77
2023-04-06T04:03:51.950Z,47.12
2023-04-06T04:06:53.679Z,46.96
2023-04-06T04:09:55.321Z,46.86
2023-04-06T04:12:56.898Z,47.07
2023-04-06T04:15:58.819Z,46.80
2023-04-06T04:19:00.498Z,47.07
2023-04-06T04:22:05.412Z,46.76
2023-04-06T04:25:07.264Z,46.86
2023-04-06T04:28:08.825Z,47.12
2023-04-06T04:31:10.412Z,47.15
2023-04-06T04:34:11.995Z,47.32
2023-04-06T04:37:13.545Z,47.11
2023-04-06T04:40:15.507Z,46.89
2023-04-06T04:43:17.338Z,46.82
2023-04-06T04:46:18.882Z,46.76
2023-04-06T04:49:20.620Z,47.01
2023-04-06T04:52:22.187Z,46.98
2023-04-06T04:55:23.754Z,47.15
2023-04-06T04:58:25.378Z,46.86
2023-04-06T05:01:26.926Z,47.21
2023-04-06T05:04:28.552Z,47.10
2023-04-06T05:07:30.253Z,47.02
2023-04-06T05:10:31.901Z,46.91
2023-04-06T05:13:33.492Z,46.96
2023-04-06T05:16:35.331Z,47.02
2023-04-06T05:19:37.085Z,47.16
2023-04-06T05:22:38.665Z,46.94
2023-04-06T05:25:40.307Z,47.23
2023-04-06T05:28:43.526Z,47.18
2023-04-06T05:31:45.277Z,47.11
2023-04-06T05:34:46.971Z,46.88
2023-04-06T05:37:48.545Z,47.07
2023-04-06T05:40:50.150Z,47.04
2023-04-06T05:43:51.683Z,46.99
2023-04-06T05:46:53.726Z,46.77
2023-04-06T05:49:55.493Z,46.83
2023-04-06T05:52:57.126Z,46.71
2023-04-06T05:56:02.056Z,46.64
2023-04-06T05:59:03.673Z,46.75
2023-04-06T06:02:05.474Z,46.51
2023-04-06T06:05:07.383Z,46.69
2023-04-06T06:08:09.151Z,46.48
2023-04-06T06:11:10.781Z,46.68
2023-04-06T06:14:12.371Z,46.47
2023-04-06T06:17:16.190Z,46.68
2023-04-06T06:20:17.942Z,46.63
2023-04-06T06:23:19.523Z,46.78
2023-04-06T06:26:21.367Z,46.42
2023-04-06T06:29:24.868Z,46.43
2023-04-06T06:32:27.257Z,46.52
2023-04-06T06:35:28.905Z,46.62
2023-04-06T06:38:30.638Z,46.49
2023-04-06T06:41:32.295Z,46.58
2023-04-06T06:44:33.947Z,46.51
2023-04-06T06:47:35.716Z,46.41
2023-04-06T06:50:37.515Z,46.83
2023-04-06T06:53:39.179Z,46.59
2023-04-06T06:56:40.952Z,46.50
2023-04-06T06:59:42.616Z,46.83
2023-04-06T07:02:44.316Z,46.32
2023-04-06T07:05:54.227Z,46.60
2023-04-06T07:08:56.173Z,46.72
2023-04-06T07:11:57.806Z,46.67
2023-04-06T07:14:59.360Z,46.74
2023-04-06T07:18:01.016Z,46.53
2023-04-06T07:21:02.593Z,46.73
2023-04-06T07:24:04.298Z,46.38
2023-04-06T07:27:05.998Z,46.53
2023-04-06T07:30:08.488Z,46.29
2023-04-06T07:33:10.091Z,46.34
2023-04-06T07:36:11.867Z,45.99
2023-04-06T07:39:13.659Z,46.33
2023-04-06T07:42:15.456Z,46.14
2023-04-06T07:45:17.158Z,46.14
2023-04-06T07:48:18.729Z,46.10
2023-04-06T07:51:20.745Z,46.29
2023-04-06T07:54:22.480Z,46.14
2023-04-06T07:57:24.087Z,46.04
2023-04-06T08:00:25.974Z,46.20
2023-04-06T08:03:27.837Z,46.24
2023-04-06T08:06:29.763Z,46.09
2023-04-06T08:09:31.462Z,45.87
2023-04-06T08:12:34.953Z,45.98
2023-04-06T08:15:36.669Z,45.92
2023-04-06T08:18:38.354Z,45.88
2023-04-06T08:21:41.058Z,45.82
2023-04-06T08:24:42.930Z,45.89
2023-04-06T08:27:44.533Z,45.84
2023-04-06T08:30:46.330Z,45.87
2023-04-06T08:33:47.927Z,45.77
2023-04-06T08:36:49.564Z,45.56
2023-04-06T08:39:51.372Z,45.65
2023-04-06T08:42:57.588Z,45.43
2023-04-06T08:46:00.193Z,45.49
2023-04-06T08:49:03.342Z,45.32
2023-04-06T08:52:11.597Z,45.35
2023-04-06T08:55:13.182Z,45.28
2023-04-06T08:58:24.123Z,45.29
2023-04-06T09:01:30.629Z,45.11
2023-04-06T09:04:34.342Z,45.13
2023-04-06T09:07:36.998Z,44.82
2023-04-06T09:10:41.974Z,44.94
2023-04-06T09:13:48.778Z,44.84
2023-04-06T09:16:50.411Z,44.86
2023-04-06T09:19:52.682Z,44.81
2023-04-06T09:22:54.594Z,44.92
2023-04-06T09:26:11.536Z,44.92
2023-04-06T09:29:23.471Z,44.68
2023-04-06T09:32:25.161Z,44.58
2023-04-06T09:35:31.389Z,44.68
2023-04-06T09:38:33.043Z,44.56
2023-04-06T09:41:36.637Z,44.50
2023-04-06T09:44:38.349Z,44.67
2023-04-06T09:47:43.763Z,44.40
2023-04-06T09:50:45.853Z,44.27
2023-04-06T09:53:53.119Z,44.09
2023-04-06T09:57:03.348Z,44.18
2023-04-06T10:00:12.253Z,43.97
2023-04-06T10:03:46.398Z,43.88
2023-04-06T10:06:53.307Z,43.92
2023-04-06T10:09:56.110Z,43.78
2023-04-06T10:12:58.689Z,43.72
2023-04-06T10:16:02.607Z,43.63
2023-04-06T10:19:29.086Z,43.56
2023-04-06T10:22:44.099Z,43.57
2023-04-06T10:25:59.247Z,43.43
2023-04-06T10:29:04.961Z,43.23
2023-04-06T10:32:06.546Z,43.21
2023-04-06T10:35:09.085Z,43.23
2023-04-06T10:38:11.000Z,43.12
2023-04-06T10:41:13.174Z,42.95
2023-04-06T10:44:27.108Z,43.00
2023-04-06T10:47:28.693Z,42.95
2023-04-06T10:50:30.791Z,42.81
2023-04-06T10:53:34.314Z,43.08
2023-04-06T10:56:38.232Z,42.80
2023-04-06T10:59:43.503Z,42.80
2023-04-06T11:02:45.141Z,42.72
2023-04-06T11:05:50.747Z,42.71
2023-04-06T11:08:53.009Z,42.72
2023-04-06T11:11:55.385Z,42.49
2023-04-06T11:15:07.123Z,42.52
2023-04-06T11:18:08.926Z,42.51
2023-04-06T11:21:10.866Z,42.70
2023-04-06T11:24:13.789Z,42.34
2023-04-06T11:27:17.126Z,42.41
2023-04-06T11:30:19.309Z,42.46
2023-04-06T11:33:23.914Z,42.27
2023-04-06T11:36:31.141Z,42.13
2023-04-06T11:39:38.234Z,42.40
2023-04-06T11:42:39.911Z,42.08
2023-04-06T11:45:44.818Z,42.20
2023-04-06T11:48:47.443Z,41.94
2023-04-06T11:51:49.132Z,41.92
2023-04-06T11:54:52.857Z,41.98
2023-04-06T11:57:54.541Z,42.13
2023-04-06T12:01:04.537Z,41.96
2023-04-06T12:04:06.190Z,41.70
2023-04-06T12:07:10.054Z,41.70
2023-04-06T12:10:11.923Z,41.80
2023-04-06T12:13:13.640Z,41.67
2023-04-06T12:16:15.663Z,41.47
2023-04-06T12:19:17.445Z,41.34
2023-04-06T12:22:19.192Z,41.47
2023-04-06T12:25:21.164Z,41.40
2023-04-06T12:28:26.748Z,41.37
2023-04-06T12:31:28.619Z,41.42
2023-04-06T12:34:30.310Z,41.40
2023-04-06T12:37:31.883Z,41.13
2023-04-06T12:40:37.922Z,41.43
2023-04-06T12:43:44.175Z,41.29
2023-04-06T12:46:46.485Z,41.24
2023-04-06T12:49:48.070Z,40.88
2023-04-06T12:52:49.680Z,40.79
2023-04-06T12:55:51.293Z,40.77
2023-04-06T12:58:53.528Z,41.02
2023-04-06T13:01:55.392Z,41.05
2023-04-06T13:04:57.005Z,40.81
2023-04-06T13:07:58.553Z,40.83
2023-04-06T13:11:00.126Z,40.84
2023-04-06T13:14:01.683Z,40.59
2023-04-06T13:17:03.223Z,40.14
2023-04-06T13:20:05.439Z,40.52
2023-04-06T13:23:07.007Z,40.21
2023-04-06T13:26:09.023Z,40.39
2023-04-06T13:29:10.645Z,40.49
2023-04-06T13:32:12.341Z,40.16
2023-04-06T13:35:14.312Z,39.97
2023-04-06T13:38:16.184Z,40.00
2023-04-06T13:41:24.529Z,39.92
2023-04-06T13:44:26.107Z,40.12
2023-04-06T13:47:28.574Z,39.84
2023-04-06T13:50:30.425Z,39.89
2023-04-06T13:53:31.989Z,39.77
2023-04-06T13:56:33.500Z,39.80
2023-04-06T13:59:39.301Z,39.76
2023-04-06T14:02:41.155Z,39.83
2023-04-06T14:05:42.942Z,39.67
2023-04-06T14:08:44.555Z,39.75
2023-04-06T14:11:46.241Z,39.69
2023-04-06T14:14:47.780Z,39.57
2023-04-06T14:17:49.648Z,39.38
2023-04-06T14:20:57.381Z,39.45
2023-04-06T14:23:59.854Z,39.48
2023-04-06T14:27:02.103Z,39.25
2023-04-06T14:30:04.106Z,39.22
2023-04-06T14:33:05.940Z,39.52
2023-04-06T14:36:08.344Z,39.33
2023-04-06T14:39:10.931Z,39.05
2023-04-06T14:42:12.468Z,39.57
2023-04-06T14:45:14.118Z,39.54
2023-04-06T14:48:16.849Z,39.43
2023-04-06T14:51:18.426Z,39.28
2023-04-06T14:54:19.970Z,39.46
2023-04-06T14:57:21.488Z,39.35
2023-04-06T15:00:23.265Z,39.46
2023-04-06T15:03:26.613Z,39.40
2023-04-06T15:06:28.313Z,39.22
2023-04-06T15:09:30.341Z,39.52
2023-04-06T15:12:33.208Z,38.92
2023-04-06T15:15:34.804Z,39.23
2023-04-06T15:18:36.560Z,38.92
2023-04-06T15:21:38.186Z,38.94
2023-04-06T15:24:39.717Z,39.15
2023-04-06T15:27:41.326Z,39.12
2023-04-06T15:30:42.921Z,39.06
2023-04-06T15:33:45.029Z,38.99
2023-04-06T15:36:46.811Z,38.77
2023-04-06T15:39:48.389Z,38.65
2023-04-06T15:42:50.836Z,38.46
2023-04-06T15:45:53.843Z,38.92
2023-04-06T15:48:55.665Z,38.93
2023-04-06T15:51:57.333Z,38.77
2023-04-06T15:54:59.032Z,38.69
2023-04-06T15:58:00.832Z,38.79
2023-04-06T16:01:11.783Z,38.76
2023-04-06T16:04:14.894Z,38.70
2023-04-06T16:07:16.774Z,38.48
2023-04-06T16:10:18.479Z,38.68
2023-04-06T16:13:21.534Z,38.61
2023-04-06T16:16:24.183Z,38.61
2023-04-06T16:19:25.977Z,38.51
2023-04-06T16:22:28.742Z,38.61
2023-04-06T16:25:30.702Z,38.70
2023-04-06T16:28:33.122Z,38.59
2023-04-06T16:31:34.745Z,38.74
2023-04-06T16:34:36.649Z,38.60
2023-04-06T16:37:38.220Z,38.68
2023-04-06T16:40:41.031Z,38.71
2023-04-06T16:43:42.759Z,38.80
2023-04-06T16:46:44.599Z,38.65
2023-04-06T16:49:46.551Z,38.80
2023-04-06T16:52:48.122Z,38.71
2023-04-06T16:55:49.689Z,38.74
2023-04-06T16:58:51.350Z,38.70
2023-04-06T17:01:53.068Z,38.93
2023-04-06T17:04:54.680Z,38.84
2023-04-06T17:07:56.398Z,38.93
2023-04-06T17:11:02.559Z,38.93
2023-04-06T17:14:04.401Z,38.85
2023-04-06T17:17:06.837Z,38.93
2023-04-06T17:20:08.981Z,38.92
2023-04-06T17:23:10.809Z,39.00
2023-04-06T17:26:12.479Z,39.07
2023-04-06T17:29:14.053Z,39.10
2023-04-06T17:32:16.589Z,39.18
2023-04-06T17:35:18.166Z,39.20
2023-04-06T17:38:19.971Z,39.37
2023-04-06T17:41:21.822Z,39.43
2023-04-06T17:44:23.435Z,39.30
2023-04-06T17:47:25.809Z,39.33
2023-04-06T17:50:27.439Z,39.40
2023-04-06T17:53:34.429Z,39.40
2023-04-06T17:56:35.990Z,39.42
2023-04-06T17:59:37.615Z,39.45
2023-04-06T18:02:39.299Z,39.57
2023-04-06T18:05:41.460Z,39.47
2023-04-06T18:08:43.294Z,39.52
2023-04-06T18:11:45.444Z,39.50
2023-04-06T18:14:47.102Z,39.60
2023-04-06T18:17:50.525Z,39.53
2023-04-06T18:20:52.098Z,39.55
2023-04-06T18:23:54.657Z,39.58
2023-04-06T18:26:57.620Z,39.52
2023-04-06T18:30:01.043Z,39.89
2023-04-06T18:33:02.943Z,39.69
2023-04-06T18:36:04.997Z,39.68
2023-04-06T18:39:06.599Z,39.66
2023-04-06T18:42:08.130Z,39.67
2023-04-06T18:45:10.044Z,39.72
2023-04-06T18:48:11.804Z,39.90
2023-04-06T18:51:13.563Z,39.82
2023-04-06T18:54:15.629Z,39.90
2023-04-06T18:57:17.225Z,39.83
2023-04-06T19:00:18.883Z,39.99
2023-04-06T19:03:22.174Z,39.91
2023-04-06T19:06:24.842Z,39.91
2023-04-06T19:09:27.553Z,40.00
2023-04-06T19:12:29.168Z,40.02
2023-04-06T19:15:31.369Z,40.08
2023-04-06T19:18:32.966Z,40.02
2023-04-06T19:21:34.549Z,40.26
2023-04-06T19:24:36.246Z,40.17
2023-04-06T19:27:37.926Z,40.11
2023-04-06T19:30:41.274Z,40.20
2023-04-06T19:33:43.660Z,40.17
2023-04-06T19:36:45.905Z,40.18
2023-04-06T19:39:47.859Z,40.28
2023-04-06T19:42:49.396Z,40.16
2023-04-06T19:45:51.380Z,40.19
2023-04-06T19:48:53.091Z,40.13
2023-04-06T19:51:57.579Z,39.95
2023-04-06T19:55:00.287Z,40.25
2023-04-06T19:58:01.960Z,40.08
2023-04-06T20:01:04.420Z,40.14
2023-04-06T20:04:07.035Z,40.09
2023-04-06T20:07:08.871Z,40.28
2023-04-06T20:10:10.818Z,40.41
2023-04-06T20:13:12.605Z,40.24
2023-04-06T20:16:15.412Z,40.41
2023-04-06T20:19:17.029Z,40.66
2023-04-06T20:22:18.613Z,40.44
2023-04-06T20:25:22.100Z,40.46
2023-04-06T20:28:24.314Z,40.46
2023-04-06T20:31:27.542Z,40.54
2023-04-06T20:34:29.852Z,40.58
2023-04-06T20:37:31.430Z,40.56
2023-04-06T20:40:32.960Z,40.42
2023-04-06T20:43:35.569Z,40.54
2023-04-06T20:46:37.237Z,40.42
2023-04-06T20:49:38.816Z,40.45
2023-04-06T20:52:40.401Z,40.44
2023-04-06T20:55:42.145Z,40.59
2023-04-06T20:58:43.754Z,40.60
2023-04-06T21:01:45.564Z,40.53
2023-04-06T21:04:48.527Z,40.50
2023-04-06T21:07:50.394Z,40.55
2023-04-06T21:10:51.974Z,40.58
2023-04-06T21:13:53.530Z,40.65
2023-04-06T21:16:55.883Z,40.54
2023-04-06T21:19:57.460Z,40.52
2023-04-06T21:22:59.008Z,40.45
2023-04-06T21:26:02.051Z,40.57
2023-04-06T21:29:03.652Z,40.44
2023-04-06T21:32:05.483Z,40.56
2023-04-06T21:35:07.630Z,40.55
2023-04-06T21:38:09.265Z,40.52
2023-04-06T21:41:10.960Z,40.60
2023-04-06T21:44:12.515Z,40.66
2023-04-06T21:47:14.041Z,40.55
2023-04-06T21:50:16.353Z,40.62
2023-04-06T21:53:18.308Z,40.63
2023-04-06T21:56:22.136Z,40.78
2023-04-06T21:59:23.688Z,40.78
2023-04-06T22:02:25.557Z,40.70
2023-04-06T22:05:27.293Z,40.70
2023-04-06T22:08:33.808Z,40.69
2023-04-06T22:11:36.063Z,40.75
2023-04-06T22:14:37.667Z,40.86
2023-04-06T22:17:40.259Z,40.85
2023-04-06T22:20:41.881Z,40.75
2023-04-06T22:23:43.445Z,40.71
2023-04-06T22:26:45.008Z,40.79
2023-04-06T22:29:46.557Z,40.93
2023-04-06T22:32:48.126Z,40.97
2023-04-06T22:35:49.760Z,41.03
2023-04-06T22:38:51.501Z,41.11
2023-04-06T22:41:53.047Z,41.01
2023-04-06T22:44:54.574Z,41.13
2023-04-06T22:47:56.163Z,41.22
2023-04-06T22:50:57.771Z,41.07
2023-04-06T22:53:59.359Z,41.20
2023-04-06T22:57:01.199Z,41.17
2023-04-06T23:00:05.833Z,41.35
2023-04-06T23:03:07.474Z,41.14
2023-04-06T23:06:09.255Z,41.28
2023-04-06T23:09:10.861Z,41.22
2023-04-06T23:12:12.417Z,41.19
2023-04-06T23:15:14.535Z,41.05
2023-04-06T23:18:16.394Z,41.28
2023-04-06T23:21:17.969Z,41.27
2023-04-06T23:24:19.514Z,41.32
2023-04-06T23:27:21.071Z,41.34
2023-04-06T23:30:22.846Z,41.25
2023-04-06T23:33:24.483Z,41.32
2023-04-06T23:36:26.969Z,41.22
2023-04-06T23:39:31.082Z,41.37
2023-04-06T23:42:32.679Z,41.48
2023-04-06T23:45:34.393Z,41.24
2023-04-06T23:48:36.173Z,41.23
2023-04-06T23:51:37.713Z,41.40
2023-04-06T23:54:39.268Z,41.53
2023-04-06T23:57:40.944Z,41.48
